createdAt,value
2022-08-02T00:00:47.275Z,4
2022-08-02T00:01:47.393Z,4
2022-08-02T00:02:47.271Z,3
2022-08-02T00:03:47.278Z,4
2022-08-02T00:04:47.278Z,4
2022-08-02T00:05:53.746Z,4
2022-08-02T00:06:47.330Z,4
2022-08-02T00:07:47.269Z,4
2022-08-02T00:08:47.270Z,4
2022-08-02T00:09:47.262Z,4
2022-08-02T00:10:47.267Z,4
2022-08-02T00:11:47.285Z,4
2022-08-02T00:12:47.272Z,4
2022-08-02T00:13:47.338Z,4
2022-08-02T00:14:47.282Z,3
2022-08-02T00:15:47.283Z,4
2022-08-02T00:16:47.280Z,4
2022-08-02T00:18:47.272Z,4
2022-08-02T00:19:47.275Z,4
2022-08-02T00:20:47.276Z,4
2022-08-02T00:21:47.278Z,4
2022-08-02T00:22:47.287Z,4
2022-08-02T00:24:27.755Z,4
2022-08-02T00:24:47.272Z,4
2022-08-02T00:25:54.939Z,4
2022-08-02T00:26:47.284Z,4
2022-08-02T00:27:47.278Z,4
2022-08-02T00:28:47.279Z,4
2022-08-02T00:29:53.070Z,4
2022-08-02T00:30:47.283Z,4
2022-08-02T00:31:47.277Z,4
2022-08-02T00:32:47.278Z,4
2022-08-02T00:34:27.210Z,4
2022-08-02T00:34:47.284Z,4
2022-08-02T00:35:47.282Z,4
2022-08-02T00:36:47.284Z,4
2022-08-02T00:37:47.284Z,4
2022-08-02T00:38:47.283Z,4
2022-08-02T00:39:47.338Z,5
2022-08-02T00:40:47.284Z,4
2022-08-02T00:41:47.290Z,4
2022-08-02T00:42:47.287Z,4
2022-08-02T00:43:47.282Z,4
2022-08-02T00:44:47.291Z,4
2022-08-02T00:46:01.913Z,4
2022-08-02T00:46:47.320Z,4
2022-08-02T00:47:47.289Z,4
2022-08-02T00:48:47.286Z,4
2022-08-02T00:49:47.303Z,4
2022-08-02T00:50:47.286Z,4
2022-08-02T00:51:47.291Z,4
2022-08-02T00:52:47.285Z,4
2022-08-02T00:53:47.335Z,4
2022-08-02T00:54:47.298Z,4
2022-08-02T00:55:47.297Z,4
2022-08-02T00:56:49.834Z,5
2022-08-02T00:57:47.293Z,4
2022-08-02T00:58:47.299Z,4
2022-08-02T00:59:47.302Z,4
2022-08-02T01:00:47.292Z,4
2022-08-02T01:01:57.480Z,4
2022-08-02T01:02:47.307Z,4
2022-08-02T01:03:47.294Z,4
2022-08-02T01:04:47.303Z,4
2022-08-02T01:05:55.871Z,4
2022-08-02T01:06:47.303Z,4
2022-08-02T01:07:47.300Z,4
2022-08-02T01:08:47.307Z,4
2022-08-02T01:09:47.296Z,4
2022-08-02T01:10:47.301Z,4
2022-08-02T01:11:47.292Z,4
2022-08-02T01:12:47.294Z,4
2022-08-02T01:13:47.299Z,4
2022-08-02T01:14:47.292Z,4
2022-08-02T01:15:47.300Z,4
2022-08-02T01:16:47.295Z,4
2022-08-02T01:17:47.302Z,4
2022-08-02T01:18:47.314Z,4
2022-08-02T01:19:47.316Z,4
2022-08-02T01:20:47.320Z,4
2022-08-02T01:21:47.361Z,4
2022-08-02T01:23:03.179Z,4
2022-08-02T01:23:47.301Z,4
2022-08-02T01:24:47.330Z,4
2022-08-02T01:25:47.311Z,4
2022-08-02T01:26:47.308Z,4
2022-08-02T01:27:47.308Z,4
2022-08-02T01:28:47.304Z,4
2022-08-02T01:29:47.301Z,4
2022-08-02T01:30:47.305Z,4
2022-08-02T01:31:47.307Z,4
2022-08-02T01:32:47.303Z,4
2022-08-02T01:33:47.299Z,4
2022-08-02T01:34:47.306Z,4
2022-08-02T01:35:50.959Z,4
2022-08-02T01:36:47.311Z,4
2022-08-02T01:37:47.307Z,4
2022-08-02T01:38:47.305Z,4
2022-08-02T01:39:47.305Z,4
2022-08-02T01:40:47.366Z,4
2022-08-02T01:41:47.318Z,5
2022-08-02T01:42:47.317Z,4
2022-08-02T01:43:47.308Z,4
2022-08-02T01:44:47.306Z,4
2022-08-02T01:45:47.312Z,4
2022-08-02T01:46:47.310Z,4
2022-08-02T01:47:47.741Z,4
2022-08-02T01:48:47.310Z,5
2022-08-02T01:49:47.320Z,5
2022-08-02T01:50:47.320Z,4
2022-08-02T01:51:47.320Z,5
2022-08-02T01:52:53.291Z,4
2022-08-02T01:53:47.323Z,5
2022-08-02T01:54:47.360Z,5
2022-08-02T01:55:57.409Z,5
2022-08-02T01:56:47.323Z,5
2022-08-02T01:57:47.335Z,4
2022-08-02T01:58:47.309Z,5
2022-08-02T01:59:47.327Z,4
2022-08-02T02:00:47.358Z,5
2022-08-02T02:01:47.451Z,5
2022-08-02T02:02:47.312Z,5
2022-08-02T02:03:47.324Z,5
2022-08-02T02:04:47.318Z,4
2022-08-02T02:05:47.321Z,5
2022-08-02T02:06:47.327Z,4
2022-08-02T02:07:47.323Z,5
2022-08-02T02:08:47.329Z,5
2022-08-02T02:09:50.222Z,4
2022-08-02T02:10:47.323Z,5
2022-08-02T02:12:08.683Z,4
2022-08-02T02:12:47.317Z,5
2022-08-02T02:13:47.327Z,5
2022-08-02T02:14:51.835Z,5
2022-08-02T02:15:47.371Z,5
2022-08-02T02:16:47.320Z,5
2022-08-02T02:18:11.423Z,5
2022-08-02T02:18:47.321Z,5
2022-08-02T02:19:47.332Z,5
2022-08-02T02:20:47.356Z,5
2022-08-02T02:21:47.328Z,4
2022-08-02T02:22:49.781Z,5
2022-08-02T02:23:47.330Z,5
2022-08-02T02:24:47.331Z,4
2022-08-02T02:25:47.323Z,4
2022-08-02T02:26:52.312Z,5
2022-08-02T02:27:47.324Z,5
2022-08-02T02:28:47.331Z,5
2022-08-02T02:29:47.384Z,4
2022-08-02T02:30:47.333Z,5
2022-08-02T02:31:47.337Z,4
2022-08-02T02:32:47.338Z,5
2022-08-02T02:33:47.331Z,4
2022-08-02T02:34:47.331Z,5
2022-08-02T02:35:47.339Z,5
2022-08-02T02:36:47.386Z,5
2022-08-02T02:37:47.331Z,5
2022-08-02T02:38:47.336Z,5
2022-08-02T02:39:48.851Z,5
2022-08-02T02:40:47.332Z,5
2022-08-02T02:41:47.349Z,5
2022-08-02T02:42:49.233Z,5
2022-08-02T02:43:47.401Z,5
2022-08-02T02:44:47.332Z,4
2022-08-02T02:45:47.337Z,5
2022-08-02T02:46:47.354Z,5
2022-08-02T02:47:47.352Z,5
2022-08-02T02:48:47.341Z,5
2022-08-02T02:49:47.339Z,5
2022-08-02T02:50:47.392Z,5
2022-08-02T02:51:47.337Z,5
2022-08-02T02:52:47.350Z,5
2022-08-02T02:54:30.905Z,4
2022-08-02T02:54:47.344Z,5
2022-08-02T02:56:01.798Z,5
2022-08-02T02:56:47.353Z,5
2022-08-02T02:57:47.409Z,5
2022-08-02T02:58:47.339Z,5
2022-08-02T02:59:49.654Z,5
2022-08-02T03:00:47.413Z,5
2022-08-02T03:01:56.639Z,5
2022-08-02T03:02:47.349Z,5
2022-08-02T03:03:47.341Z,5
2022-08-02T03:04:56.277Z,5
2022-08-02T03:05:47.350Z,5
2022-08-02T03:06:47.353Z,5
2022-08-02T03:07:47.347Z,5
2022-08-02T03:08:47.353Z,5
2022-08-02T03:09:53.952Z,5
2022-08-02T03:10:47.349Z,5
2022-08-02T03:11:47.347Z,6
2022-08-02T03:12:47.345Z,5
2022-08-02T03:13:47.348Z,5
2022-08-02T03:14:49.332Z,6
2022-08-02T03:15:47.354Z,5
2022-08-02T03:16:47.352Z,6
2022-08-02T03:17:47.345Z,5
2022-08-02T03:18:47.344Z,6
2022-08-02T03:19:47.345Z,5
2022-08-02T03:20:47.358Z,5
2022-08-02T03:21:47.348Z,5
2022-08-02T03:22:47.362Z,5
2022-08-02T03:23:47.350Z,6
2022-08-02T03:24:47.350Z,5
2022-08-02T03:25:47.393Z,5
2022-08-02T03:26:47.354Z,5
2022-08-02T03:27:47.359Z,5
2022-08-02T03:28:47.349Z,5
2022-08-02T03:29:47.381Z,5
2022-08-02T03:30:47.353Z,5
2022-08-02T03:31:47.349Z,5
2022-08-02T03:32:47.358Z,6
2022-08-02T03:33:47.362Z,6
2022-08-02T03:34:47.355Z,6
2022-08-02T03:35:47.356Z,5
2022-08-02T03:36:47.353Z,5
2022-08-02T03:37:47.362Z,6
2022-08-02T03:38:47.353Z,5
2022-08-02T03:39:52.770Z,6
2022-08-02T03:40:47.368Z,5
2022-08-02T03:41:47.364Z,5
2022-08-02T03:42:47.356Z,5
2022-08-02T03:43:47.360Z,5
2022-08-02T03:44:47.437Z,5
2022-08-02T03:45:47.368Z,6
2022-08-02T03:46:47.356Z,5
2022-08-02T03:47:47.367Z,5
2022-08-02T03:48:47.362Z,5
2022-08-02T03:49:47.358Z,5
2022-08-02T03:50:47.362Z,5
2022-08-02T03:51:47.415Z,5
2022-08-02T03:52:47.374Z,5
2022-08-02T03:53:47.362Z,5
2022-08-02T03:54:47.385Z,5
2022-08-02T03:55:47.396Z,5
2022-08-02T03:56:47.373Z,5
2022-08-02T03:57:47.366Z,5
2022-08-02T03:58:49.396Z,5
2022-08-02T03:59:47.391Z,5
2022-08-02T04:00:47.472Z,5
2022-08-02T04:01:47.373Z,6
2022-08-02T04:02:47.372Z,5
2022-08-02T04:03:47.365Z,5
2022-08-02T04:04:47.367Z,6
2022-08-02T04:06:03.958Z,5
2022-08-02T04:06:47.366Z,6
2022-08-02T04:08:34.299Z,6
2022-08-02T04:08:47.395Z,5
2022-08-02T04:09:47.372Z,5
2022-08-02T04:10:47.379Z,6
2022-08-02T04:11:47.379Z,5
2022-08-02T04:12:47.379Z,6
2022-08-02T04:13:47.381Z,5
2022-08-02T04:14:47.371Z,6
2022-08-02T04:15:47.372Z,5
2022-08-02T04:16:47.383Z,5
2022-08-02T04:17:47.376Z,5
2022-08-02T04:18:47.377Z,6
2022-08-02T04:19:47.433Z,6
2022-08-02T04:20:47.377Z,5
2022-08-02T04:21:51.339Z,5
2022-08-02T04:22:47.372Z,5
2022-08-02T04:23:47.376Z,5
2022-08-02T04:24:47.379Z,5
2022-08-02T04:25:47.404Z,5
2022-08-02T04:26:48.847Z,5
2022-08-02T04:27:50.492Z,5
2022-08-02T04:28:47.380Z,5
2022-08-02T04:29:47.382Z,5
2022-08-02T04:30:47.390Z,5
2022-08-02T04:31:47.382Z,5
2022-08-02T04:32:47.383Z,5
2022-08-02T04:33:47.379Z,5
2022-08-02T04:35:18.113Z,6
2022-08-02T04:35:47.391Z,6
2022-08-02T04:36:47.388Z,6
2022-08-02T04:38:08.952Z,6
2022-08-02T04:38:47.382Z,6
2022-08-02T04:39:47.384Z,6
2022-08-02T04:40:47.385Z,5
2022-08-02T04:41:47.390Z,5
2022-08-02T04:42:47.385Z,5
2022-08-02T04:43:47.389Z,5
2022-08-02T04:44:47.428Z,5
2022-08-02T04:45:47.383Z,6
2022-08-02T04:46:47.386Z,5
2022-08-02T04:48:03.612Z,6
2022-08-02T04:48:47.391Z,5
2022-08-02T04:49:47.390Z,5
2022-08-02T04:50:47.389Z,6
2022-08-02T04:51:47.387Z,6
2022-08-02T04:52:47.444Z,6
2022-08-02T04:53:47.400Z,5
2022-08-02T04:54:47.393Z,5
2022-08-02T04:55:47.391Z,5
2022-08-02T04:56:47.397Z,5
2022-08-02T04:57:52.622Z,5
2022-08-02T04:58:47.395Z,5
2022-08-02T04:59:50.445Z,6
2022-08-02T05:00:47.504Z,6
2022-08-02T05:01:47.403Z,5
2022-08-02T05:02:47.394Z,5
2022-08-02T05:03:47.396Z,5
2022-08-02T05:04:47.397Z,5
2022-08-02T05:05:47.401Z,6
2022-08-02T05:06:47.479Z,6
2022-08-02T05:07:47.408Z,6
2022-08-02T05:08:47.416Z,6
2022-08-02T05:09:47.404Z,6
2022-08-02T05:10:47.401Z,6
2022-08-02T05:11:55.047Z,6
2022-08-02T05:12:47.405Z,5
2022-08-02T05:13:57.919Z,6
2022-08-02T05:14:47.404Z,5
2022-08-02T05:15:47.398Z,6
2022-08-02T05:17:48.117Z,6
2022-08-02T05:18:47.408Z,5
2022-08-02T05:19:47.408Z,5
2022-08-02T05:20:47.403Z,6
2022-08-02T05:21:47.399Z,6
2022-08-02T05:22:47.401Z,6
2022-08-02T05:23:47.401Z,6
2022-08-02T05:24:47.398Z,6
2022-08-02T05:25:47.406Z,6
2022-08-02T05:26:47.397Z,6
2022-08-02T05:27:47.463Z,6
2022-08-02T05:28:47.431Z,7
2022-08-02T05:29:53.124Z,6
2022-08-02T05:30:47.422Z,6
2022-08-02T05:31:47.411Z,6
2022-08-02T05:32:47.410Z,6
2022-08-02T05:33:47.404Z,6
2022-08-02T05:34:47.461Z,6
2022-08-02T05:35:47.405Z,7
2022-08-02T05:36:47.427Z,6
2022-08-02T05:38:49.847Z,7
2022-08-02T05:39:55.371Z,8
2022-08-02T05:40:55.000Z,8
2022-08-02T05:41:47.410Z,8
2022-08-02T05:42:47.406Z,7
2022-08-02T05:43:47.447Z,7
2022-08-02T05:44:47.437Z,7
2022-08-02T05:45:47.410Z,7
2022-08-02T05:46:47.813Z,7
2022-08-02T05:47:47.436Z,7
2022-08-02T05:48:47.481Z,7
2022-08-02T05:49:47.419Z,8
2022-08-02T05:50:47.418Z,7
2022-08-02T05:51:47.429Z,7
2022-08-02T05:52:47.414Z,6
2022-08-02T05:53:47.527Z,7
2022-08-02T05:54:47.417Z,6
2022-08-02T05:55:47.424Z,7
2022-08-02T05:56:47.418Z,7
2022-08-02T05:57:47.415Z,7
2022-08-02T05:58:47.422Z,7
2022-08-02T05:59:47.418Z,6
2022-08-02T06:00:47.422Z,6
2022-08-02T06:01:47.480Z,6
2022-08-02T06:02:47.428Z,6
2022-08-02T06:03:47.425Z,7
2022-08-02T06:04:47.425Z,6
2022-08-02T06:05:47.421Z,7
2022-08-02T06:06:47.914Z,7
2022-08-02T06:07:47.424Z,7
2022-08-02T06:08:48.190Z,7
2022-08-02T06:09:47.534Z,8
2022-08-02T06:12:02.607Z,8
2022-08-02T06:12:47.431Z,8
2022-08-02T06:13:47.437Z,8
2022-08-02T06:14:49.274Z,7
2022-08-02T06:15:53.207Z,7
2022-08-02T06:16:47.489Z,7
2022-08-02T06:17:47.909Z,8
2022-08-02T06:18:47.835Z,8
2022-08-02T06:19:51.510Z,8
2022-08-02T06:20:47.429Z,8
2022-08-02T06:22:32.098Z,8
2022-08-02T06:22:47.611Z,7
2022-08-02T06:23:56.652Z,8
2022-08-02T06:24:47.425Z,8
2022-08-02T06:25:50.331Z,8
2022-08-02T06:26:47.437Z,9
2022-08-02T06:27:47.437Z,10
2022-08-02T06:28:47.439Z,10
2022-08-02T06:29:47.435Z,10
2022-08-02T06:31:47.440Z,10
2022-08-02T06:32:47.439Z,10
2022-08-02T06:33:47.445Z,10
2022-08-02T06:34:47.442Z,10
2022-08-02T06:35:47.438Z,11
2022-08-02T06:36:47.465Z,11
2022-08-02T06:37:47.441Z,11
2022-08-02T06:38:49.803Z,11
2022-08-02T06:39:47.462Z,11
2022-08-02T06:40:47.441Z,10
2022-08-02T06:41:47.442Z,10
2022-08-02T06:42:47.442Z,11
2022-08-02T06:43:47.442Z,11
2022-08-02T06:44:49.039Z,11
2022-08-02T06:45:47.450Z,10
2022-08-02T06:47:10.056Z,10
2022-08-02T06:47:47.447Z,11
2022-08-02T06:48:47.450Z,10
2022-08-02T06:49:52.019Z,11
2022-08-02T06:50:47.454Z,11
2022-08-02T06:52:47.445Z,9
2022-08-02T06:53:47.449Z,9
2022-08-02T06:54:47.449Z,10
2022-08-02T06:55:47.454Z,10
2022-08-02T06:56:47.452Z,10
2022-08-02T06:57:48.840Z,8
2022-08-02T06:58:47.466Z,8
2022-08-02T06:59:47.458Z,8
2022-08-02T07:00:47.474Z,8
2022-08-02T07:01:47.482Z,7
2022-08-02T07:02:47.457Z,7
2022-08-02T07:03:47.503Z,6
2022-08-02T07:04:47.452Z,6
2022-08-02T07:05:47.456Z,6
2022-08-02T07:06:47.456Z,6
2022-08-02T07:07:47.463Z,6
2022-08-02T07:09:04.904Z,5
2022-08-02T07:09:57.070Z,6
2022-08-02T07:10:47.495Z,6
2022-08-02T07:11:47.471Z,6
2022-08-02T07:12:47.460Z,5
2022-08-02T07:13:47.458Z,6
2022-08-02T07:14:47.457Z,5
2022-08-02T07:15:49.413Z,5
2022-08-02T07:16:47.473Z,5
2022-08-02T07:17:47.524Z,5
2022-08-02T07:18:47.466Z,5
2022-08-02T07:19:47.462Z,5
2022-08-02T07:20:47.460Z,5
2022-08-02T07:21:56.488Z,5
2022-08-02T07:22:47.480Z,5
2022-08-02T07:23:47.470Z,5
2022-08-02T07:24:47.469Z,5
2022-08-02T07:26:02.710Z,5
2022-08-02T07:27:09.942Z,4
2022-08-02T07:27:47.470Z,5
2022-08-02T07:28:47.463Z,5
2022-08-02T07:29:47.698Z,5
2022-08-02T07:30:47.473Z,5
2022-08-02T07:31:47.472Z,5
2022-08-02T07:32:47.475Z,5
2022-08-02T07:33:47.469Z,5
2022-08-02T07:34:51.267Z,4
2022-08-02T07:35:47.488Z,5
2022-08-02T07:36:47.479Z,5
2022-08-02T07:37:55.614Z,5
2022-08-02T07:38:47.531Z,4
2022-08-02T07:39:47.478Z,4
2022-08-02T07:40:47.471Z,5
2022-08-02T07:41:47.481Z,4
2022-08-02T07:42:47.506Z,5
2022-08-02T07:43:47.483Z,4
2022-08-02T07:45:55.996Z,4
2022-08-02T07:46:47.476Z,4
2022-08-02T07:47:47.486Z,4
2022-08-02T07:48:47.482Z,4
2022-08-02T07:49:47.477Z,5
2022-08-02T07:50:47.484Z,4
2022-08-02T07:51:47.485Z,4
2022-08-02T07:52:47.529Z,4
2022-08-02T07:53:51.452Z,4
2022-08-02T07:54:47.483Z,4
2022-08-02T07:55:47.490Z,4
2022-08-02T07:56:47.481Z,4
2022-08-02T07:57:47.482Z,4
2022-08-02T07:58:47.489Z,4
2022-08-02T07:59:47.541Z,4
2022-08-02T08:00:47.498Z,4
2022-08-02T08:01:47.544Z,4
2022-08-02T08:02:47.490Z,4
2022-08-02T08:03:47.490Z,4
2022-08-02T08:04:47.494Z,3
2022-08-02T08:06:47.487Z,3
2022-08-02T08:07:47.500Z,4
2022-08-02T08:08:47.490Z,4
2022-08-02T08:09:47.494Z,3
2022-08-02T08:10:47.501Z,3
2022-08-02T08:11:47.501Z,3
2022-08-02T08:12:47.494Z,3
2022-08-02T08:13:47.553Z,3
2022-08-02T08:14:47.504Z,3
2022-08-02T08:15:51.969Z,3
2022-08-02T08:16:47.509Z,3
2022-08-02T08:17:47.500Z,3
2022-08-02T08:18:47.498Z,3
2022-08-02T08:19:51.104Z,3
2022-08-02T08:20:47.572Z,3
2022-08-02T08:21:47.506Z,2
2022-08-02T08:22:47.499Z,2
2022-08-02T08:24:47.499Z,2
2022-08-02T08:25:47.527Z,2
2022-08-02T08:27:47.512Z,2
2022-08-02T08:28:47.509Z,2
2022-08-02T08:29:47.524Z,2
2022-08-02T08:30:47.562Z,3
2022-08-02T08:31:47.511Z,3
2022-08-02T08:32:47.511Z,3
2022-08-02T08:33:47.509Z,2
2022-08-02T08:34:47.607Z,2
2022-08-02T08:35:47.510Z,2
2022-08-02T08:36:47.509Z,2
2022-08-02T08:37:47.513Z,2
2022-08-02T08:38:47.523Z,2
2022-08-02T08:39:56.463Z,2
2022-08-02T08:40:47.531Z,2
2022-08-02T08:41:47.575Z,2
2022-08-02T08:42:47.518Z,2
2022-08-02T08:43:52.889Z,2
2022-08-02T08:44:47.515Z,2
2022-08-02T08:45:56.210Z,2
2022-08-02T08:46:47.517Z,2
2022-08-02T08:47:47.520Z,2
2022-08-02T08:48:47.513Z,2
2022-08-02T08:49:52.387Z,2
2022-08-02T08:50:47.515Z,2
2022-08-02T08:51:47.519Z,2
2022-08-02T08:52:47.515Z,2
2022-08-02T08:53:47.523Z,2
2022-08-02T08:54:48.632Z,2
2022-08-02T08:55:47.585Z,2
2022-08-02T08:56:47.523Z,2
2022-08-02T08:57:47.524Z,3
2022-08-02T08:58:47.809Z,3
2022-08-02T08:59:47.524Z,2
2022-08-02T09:00:47.625Z,3
2022-08-02T09:01:49.584Z,3
2022-08-02T09:02:47.588Z,3
2022-08-02T09:03:47.541Z,3
2022-08-02T09:04:54.664Z,3
2022-08-02T09:05:47.545Z,3
2022-08-02T09:06:47.529Z,3
2022-08-02T09:07:47.525Z,3
2022-08-02T09:08:47.551Z,3
2022-08-02T09:09:47.592Z,3
2022-08-02T09:10:47.536Z,3
2022-08-02T09:11:47.542Z,3
2022-08-02T09:12:47.538Z,3
2022-08-02T09:13:47.532Z,3
2022-08-02T09:14:50.026Z,3
2022-08-02T09:15:47.559Z,3
2022-08-02T09:16:47.571Z,3
2022-08-02T09:17:47.538Z,3
2022-08-02T09:18:47.776Z,3
2022-08-02T09:19:47.535Z,3
2022-08-02T09:20:47.543Z,3
2022-08-02T09:21:47.539Z,3
2022-08-02T09:22:47.538Z,3
2022-08-02T09:23:47.594Z,3
2022-08-02T09:24:47.546Z,3
2022-08-02T09:25:59.097Z,3
2022-08-02T09:26:47.550Z,3
2022-08-02T09:27:47.545Z,3
2022-08-02T09:28:47.552Z,3
2022-08-02T09:30:12.684Z,3
2022-08-02T09:30:47.603Z,3
2022-08-02T09:31:49.851Z,3
2022-08-02T09:32:47.548Z,3
2022-08-02T09:33:47.551Z,3
2022-08-02T09:34:47.545Z,3
2022-08-02T09:36:05.937Z,3
2022-08-02T09:36:47.546Z,3
2022-08-02T09:37:48.749Z,3
2022-08-02T09:38:47.553Z,3
2022-08-02T09:39:47.911Z,3
2022-08-02T09:41:47.559Z,3
2022-08-02T09:42:47.552Z,3
2022-08-02T09:43:51.824Z,3
2022-08-02T09:44:47.611Z,3
2022-08-02T09:45:47.554Z,4
2022-08-02T09:46:47.560Z,3
2022-08-02T09:47:47.560Z,3
2022-08-02T09:48:47.557Z,3
2022-08-02T09:49:52.534Z,4
2022-08-02T09:50:47.556Z,4
2022-08-02T09:51:47.826Z,3
2022-08-02T09:52:47.556Z,3
2022-08-02T09:53:47.559Z,3
2022-08-02T09:54:47.946Z,3
2022-08-02T09:55:47.562Z,3
2022-08-02T09:56:47.570Z,3
2022-08-02T09:57:50.335Z,3
2022-08-02T09:58:47.625Z,3
2022-08-02T09:59:47.568Z,3
2022-08-02T10:00:52.967Z,4
2022-08-02T10:02:47.574Z,3
2022-08-02T10:03:47.574Z,3
2022-08-02T10:04:52.419Z,3
2022-08-02T10:05:53.991Z,3
2022-08-02T10:06:47.570Z,3
2022-08-02T10:07:47.576Z,3
2022-08-02T10:08:47.578Z,3
2022-08-02T10:09:47.781Z,4
2022-08-02T10:10:47.580Z,3
2022-08-02T10:11:47.575Z,3
2022-08-02T10:12:47.591Z,3
2022-08-02T10:13:47.571Z,3
2022-08-02T10:14:47.583Z,3
2022-08-02T10:16:47.594Z,4
2022-08-02T10:17:47.577Z,3
2022-08-02T10:18:47.588Z,3
2022-08-02T10:20:00.943Z,3
2022-08-02T10:20:47.584Z,3
2022-08-02T10:21:47.594Z,3
2022-08-02T10:23:47.598Z,3
2022-08-02T10:24:48.567Z,4
2022-08-02T10:25:47.599Z,3
2022-08-02T10:26:47.599Z,3
2022-08-02T10:28:04.667Z,3
2022-08-02T10:28:47.584Z,3
2022-08-02T10:29:54.004Z,3
2022-08-02T10:30:47.585Z,3
2022-08-02T10:31:47.608Z,3
2022-08-02T10:32:47.587Z,3
2022-08-02T10:33:50.273Z,3
2022-08-02T10:34:51.238Z,3
2022-08-02T10:35:47.602Z,3
2022-08-02T10:36:47.614Z,3
2022-08-02T10:37:47.601Z,3
2022-08-02T10:38:47.604Z,3
2022-08-02T10:39:50.807Z,3
2022-08-02T10:40:47.598Z,3
2022-08-02T10:41:47.602Z,3
2022-08-02T10:42:47.600Z,4
2022-08-02T10:44:47.601Z,3
2022-08-02T10:45:50.723Z,3
2022-08-02T10:46:47.595Z,3
2022-08-02T10:47:47.606Z,3
2022-08-02T10:48:47.607Z,3
2022-08-02T10:49:48.018Z,3
2022-08-02T10:50:47.600Z,3
2022-08-02T10:51:47.606Z,3
2022-08-02T10:52:47.665Z,3
2022-08-02T10:53:47.611Z,3
2022-08-02T10:54:47.604Z,2
2022-08-02T10:55:47.611Z,3
2022-08-02T10:56:47.627Z,3
2022-08-02T10:57:48.792Z,3
2022-08-02T10:58:47.609Z,3
2022-08-02T10:59:47.613Z,3
2022-08-02T11:00:47.629Z,3
2022-08-02T11:01:47.612Z,3
2022-08-02T11:02:47.620Z,3
2022-08-02T11:03:47.610Z,3
2022-08-02T11:04:47.613Z,3
2022-08-02T11:05:47.618Z,3
2022-08-02T11:06:47.615Z,3
2022-08-02T11:07:49.640Z,3
2022-08-02T11:08:47.618Z,3
2022-08-02T11:09:47.620Z,3
2022-08-02T11:10:47.617Z,3
2022-08-02T11:11:53.924Z,3
2022-08-02T11:12:47.639Z,3
2022-08-02T11:13:47.634Z,3
2022-08-02T11:14:47.621Z,2
2022-08-02T11:15:47.624Z,2
2022-08-02T11:16:47.624Z,3
2022-08-02T11:17:47.630Z,3
2022-08-02T11:18:47.624Z,3
2022-08-02T11:19:47.627Z,3
2022-08-02T11:20:47.929Z,2
2022-08-02T11:21:48.018Z,2
2022-08-02T11:22:47.632Z,2
2022-08-02T11:23:47.635Z,2
2022-08-02T11:24:47.638Z,3
2022-08-02T11:26:47.656Z,2
2022-08-02T11:27:47.683Z,2
2022-08-02T11:28:47.636Z,2
2022-08-02T11:29:47.640Z,3
2022-08-02T11:30:47.652Z,3
2022-08-02T11:31:47.638Z,2
2022-08-02T11:32:47.640Z,3
2022-08-02T11:33:47.654Z,3
2022-08-02T11:34:47.694Z,2
2022-08-02T11:35:47.646Z,2
2022-08-02T11:36:47.639Z,2
2022-08-02T11:37:47.638Z,2
2022-08-02T11:38:47.638Z,2
2022-08-02T11:39:47.647Z,2
2022-08-02T11:40:47.654Z,2
2022-08-02T11:41:47.829Z,2
2022-08-02T11:42:47.648Z,2
2022-08-02T11:43:47.644Z,2
2022-08-02T11:44:47.646Z,2
2022-08-02T11:45:48.132Z,2
2022-08-02T11:47:47.647Z,2
2022-08-02T11:48:47.706Z,2
2022-08-02T11:49:47.660Z,2
2022-08-02T11:50:47.650Z,2
2022-08-02T11:51:50.152Z,2
2022-08-02T11:52:47.649Z,2
2022-08-02T11:53:47.657Z,2
2022-08-02T11:54:47.654Z,2
2022-08-02T11:55:47.653Z,2
2022-08-02T11:56:47.659Z,2
2022-08-02T11:58:47.674Z,2
2022-08-02T11:59:47.666Z,2
2022-08-02T12:00:47.667Z,2
2022-08-02T12:01:47.696Z,2
2022-08-02T12:02:47.764Z,2
2022-08-02T12:03:47.753Z,2
2022-08-02T12:04:47.662Z,2
2022-08-02T12:06:05.186Z,2
2022-08-02T12:06:47.672Z,2
2022-08-02T12:07:47.663Z,2
2022-08-02T12:08:54.583Z,2
2022-08-02T12:09:47.676Z,2
2022-08-02T12:10:47.678Z,2
2022-08-02T12:11:47.676Z,2
2022-08-02T12:12:47.672Z,2
2022-08-02T12:13:56.716Z,2
2022-08-02T12:14:47.669Z,3
2022-08-02T12:15:47.681Z,3
2022-08-02T12:16:47.677Z,2
2022-08-02T12:17:47.960Z,3
2022-08-02T12:18:47.676Z,2
2022-08-02T12:19:47.680Z,2
2022-08-02T12:20:47.674Z,3
2022-08-02T12:21:47.674Z,2
2022-08-02T12:22:47.676Z,2
2022-08-02T12:23:59.365Z,2
2022-08-02T12:24:47.675Z,2
2022-08-02T12:25:47.674Z,2
2022-08-02T12:26:47.676Z,2
2022-08-02T12:27:47.686Z,2
2022-08-02T12:28:47.686Z,2
2022-08-02T12:29:57.854Z,2
2022-08-02T12:30:47.747Z,2
2022-08-02T12:31:57.705Z,2
2022-08-02T12:32:47.689Z,2
2022-08-02T12:33:47.695Z,2
2022-08-02T12:34:47.688Z,2
2022-08-02T12:35:47.700Z,2
2022-08-02T12:37:47.739Z,2
2022-08-02T12:38:47.692Z,2
2022-08-02T12:39:47.696Z,2
2022-08-02T12:40:47.695Z,2
2022-08-02T12:41:51.984Z,2
2022-08-02T12:42:47.694Z,2
2022-08-02T12:43:47.696Z,2
2022-08-02T12:44:47.751Z,2
2022-08-02T12:45:49.043Z,2
2022-08-02T12:46:47.702Z,2
2022-08-02T12:47:47.699Z,2
2022-08-02T12:49:08.443Z,2
2022-08-02T12:49:47.775Z,2
2022-08-02T12:50:47.698Z,2
2022-08-02T12:51:56.630Z,2
2022-08-02T12:52:47.703Z,2
2022-08-02T12:53:47.706Z,2
2022-08-02T12:54:47.704Z,2
2022-08-02T12:56:00.991Z,2
2022-08-02T12:56:47.946Z,2
2022-08-02T12:57:47.717Z,2
2022-08-02T12:58:47.710Z,2
2022-08-02T12:59:47.713Z,2
2022-08-02T13:00:47.739Z,2
2022-08-02T13:01:47.828Z,2
2022-08-02T13:02:48.051Z,2
2022-08-02T13:04:12.016Z,2
2022-08-02T13:04:50.407Z,2
2022-08-02T13:05:55.958Z,2
2022-08-02T13:06:47.708Z,2
2022-08-02T13:07:47.715Z,3
2022-08-02T13:08:47.718Z,2
2022-08-02T13:09:47.726Z,2
2022-08-02T13:10:47.720Z,2
2022-08-02T13:11:47.711Z,2
2022-08-02T13:12:47.709Z,2
2022-08-02T13:13:47.727Z,2
2022-08-02T13:14:47.722Z,2
2022-08-02T13:15:50.529Z,2
2022-08-02T13:16:47.754Z,2
2022-08-02T13:17:47.728Z,2
2022-08-02T13:18:47.716Z,2
2022-08-02T13:19:47.721Z,2
2022-08-02T13:20:47.726Z,2
2022-08-02T13:22:52.884Z,2
2022-08-02T13:23:47.730Z,2
2022-08-02T13:24:55.826Z,2
2022-08-02T13:25:47.730Z,2
2022-08-02T13:26:47.733Z,2
2022-08-02T13:27:47.723Z,2
2022-08-02T13:28:47.733Z,2
2022-08-02T13:29:47.726Z,2
2022-08-02T13:30:47.742Z,2
2022-08-02T13:31:47.732Z,2
2022-08-02T13:32:47.731Z,2
2022-08-02T13:33:47.735Z,2
2022-08-02T13:34:47.738Z,2
2022-08-02T13:35:47.745Z,2
2022-08-02T13:36:47.744Z,3
2022-08-02T13:37:47.770Z,2
2022-08-02T13:38:47.734Z,2
2022-08-02T13:40:05.613Z,2
2022-08-02T13:41:03.517Z,2
2022-08-02T13:41:47.750Z,2
2022-08-02T13:42:47.736Z,2
2022-08-02T13:43:54.866Z,2
2022-08-02T13:44:47.739Z,2
2022-08-02T13:45:47.744Z,2
2022-08-02T13:46:47.770Z,2
2022-08-02T13:48:04.666Z,2
2022-08-02T13:48:47.744Z,2
2022-08-02T13:49:50.931Z,2
2022-08-02T13:50:47.756Z,2
2022-08-02T13:51:47.780Z,3
2022-08-02T13:52:47.754Z,3
2022-08-02T13:53:47.746Z,2
2022-08-02T13:54:47.752Z,2
2022-08-02T13:55:47.767Z,2
2022-08-02T13:56:47.751Z,2
2022-08-02T13:57:51.416Z,2
2022-08-02T13:58:47.761Z,2
2022-08-02T13:59:56.995Z,2
2022-08-02T14:00:47.753Z,2
2022-08-02T14:01:47.873Z,2
2022-08-02T14:02:47.776Z,2
2022-08-02T14:04:08.342Z,2
2022-08-02T14:04:47.763Z,2
2022-08-02T14:05:49.053Z,2
2022-08-02T14:06:47.760Z,2
2022-08-02T14:07:47.766Z,2
2022-08-02T14:08:47.813Z,2
2022-08-02T14:09:47.767Z,2
2022-08-02T14:10:47.770Z,2
2022-08-02T14:11:47.759Z,2
2022-08-02T14:12:47.769Z,2
2022-08-02T14:13:47.768Z,2
2022-08-02T14:14:47.771Z,2
2022-08-02T14:15:47.767Z,2
2022-08-02T14:17:47.784Z,2
2022-08-02T14:18:47.773Z,2
2022-08-02T14:19:47.772Z,2
2022-08-02T14:20:47.773Z,2
2022-08-02T14:21:48.398Z,2
2022-08-02T14:22:47.776Z,2
2022-08-02T14:23:50.532Z,2
2022-08-02T14:24:47.807Z,2
2022-08-02T14:25:47.778Z,2
2022-08-02T14:26:47.895Z,2
2022-08-02T14:27:47.774Z,2
2022-08-02T14:28:47.779Z,2
2022-08-02T14:29:47.859Z,2
2022-08-02T14:30:47.781Z,2
2022-08-02T14:31:47.847Z,2
2022-08-02T14:32:47.804Z,2
2022-08-02T14:33:47.781Z,2
2022-08-02T14:34:47.785Z,2
2022-08-02T14:35:47.788Z,2
2022-08-02T14:36:53.307Z,2
2022-08-02T14:37:47.790Z,2
2022-08-02T14:38:47.816Z,2
2022-08-02T14:40:00.077Z,2
2022-08-02T14:40:47.787Z,2
2022-08-02T14:41:59.039Z,2
2022-08-02T14:42:47.792Z,2
2022-08-02T14:43:47.851Z,2
2022-08-02T14:44:47.794Z,2
2022-08-02T14:45:47.798Z,2
2022-08-02T14:47:47.797Z,2
2022-08-02T14:48:47.801Z,2
2022-08-02T14:49:50.241Z,2
2022-08-02T14:50:47.797Z,2
2022-08-02T14:51:48.182Z,2
2022-08-02T14:52:48.420Z,2
2022-08-02T14:53:49.473Z,2
2022-08-02T14:54:47.803Z,2
2022-08-02T14:55:47.801Z,2
2022-08-02T14:56:48.241Z,2
2022-08-02T14:57:47.854Z,2
2022-08-02T14:58:47.805Z,2
2022-08-02T14:59:47.809Z,2
2022-08-02T15:00:47.809Z,2
2022-08-02T15:01:47.892Z,2
2022-08-02T15:02:47.817Z,2
2022-08-02T15:03:47.811Z,2
2022-08-02T15:04:47.819Z,2
2022-08-02T15:05:47.825Z,2
2022-08-02T15:06:47.819Z,2
2022-08-02T15:09:47.815Z,2
2022-08-02T15:10:47.812Z,2